Raymore, Canada
Current Conditions -  °F | °C
As of 10:00 PM on Sunday 23 Nov 2014 (Local Time) from CYQR Reporting Station
Overcast Overcast  
Wind Chill: 10°   Ceiling: 5300
Heat Index: 10°   Visibility: 15mi
Dew Point:   Wind: 3mph
Humidity: 85%   Direction: 350°N
Pressure: 29.83"   Gusts: NA
Location:  51.4°N, 104.53°W
Report Text: CYQR 240400Z 35003KT 15SM OVC053 M12/M14 A2983 RMK SC8 SLP147
Loading
Personal Weather Stations






























Interactive Weather Map New forecast layout! Learn more

10-Day Weather Forecast

Advertisements
Track Severe Weather on mobile